Time;durP1;ratioP1;P1;durP2;ratioP2;P2;SDS_P1;SDS_P2;PMS_P1;PMS_P2;Temp;Humidity;BMP_temperature;BMP_pressure;BME280_temperature;BME280_humidity;BME280_pressure;Samples;Min_cycle;Max_cycle;Signal;HPM_P1;HPM_P2
2021/08/02 00:02:36;;;;;;;5.93;5.40;;;16.80;99.90;;;;;;5103420;27;20446;-73
2021/08/02 00:05:05;;;;;;;6.00;5.50;;;16.80;99.90;;;;;;5093090;28;20857;-73
2021/08/02 00:07:35;;;;;;;5.67;5.17;;;16.80;99.90;;;;;;5076719;28;20434;-74
2021/08/02 00:10:08;;;;;;;6.27;5.30;;;16.80;99.90;;;;;;5099876;27;20433;-73
2021/08/02 00:12:40;;;;;;;5.87;5.37;;;16.80;99.90;;;;;;5106660;28;20565;-74
2021/08/02 00:15:09;;;;;;;6.03;4.93;;;16.80;99.90;;;;;;5111989;28;20413;-74
2021/08/02 00:17:41;;;;;;;6.80;5.70;;;16.80;99.90;;;;;;5106080;27;20818;-74
2021/08/02 00:20:11;;;;;;;7.00;6.40;;;16.80;99.90;;;;;;5111255;27;20928;-73
2021/08/02 00:22:38;;;;;;;6.53;5.83;;;16.80;99.90;;;;;;5134293;27;20462;-74
2021/08/02 00:25:07;;;;;;;9.30;7.43;;;16.70;99.90;;;;;;5112924;28;20433;-73
2021/08/02 00:27:34;;;;;;;8.00;7.20;;;16.80;99.90;;;;;;5114962;28;20416;-73
2021/08/02 00:30:02;;;;;;;7.20;6.57;;;16.80;99.90;;;;;;5108167;27;20426;-73
2021/08/02 00:32:29;;;;;;;8.93;8.03;;;16.70;99.90;;;;;;5114084;28;20452;-74
2021/08/02 00:34:58;;;;;;;8.73;7.93;;;16.80;99.90;;;;;;5091159;28;20439;-73
2021/08/02 00:37:33;;;;;;;8.50;7.60;;;16.80;99.90;;;;;;5123612;27;20453;-73
2021/08/02 00:40:11;;;;;;;9.07;8.17;;;16.80;99.90;;;;;;5133720;27;20433;-73
2021/08/02 00:42:58;;;;;;;8.40;7.70;;;16.80;99.90;;;;;;5114321;27;20466;-73
2021/08/02 00:45:29;;;;;;;9.43;8.53;;;16.80;99.90;;;;;;5107105;27;20528;-74
2021/08/02 00:48:00;;;;;;;8.40;7.50;;;16.80;99.90;;;;;;5117343;27;20437;-74
2021/08/02 00:50:32;;;;;;;8.50;7.70;;;16.70;99.90;;;;;;5114123;27;20420;-73
2021/08/02 00:53:01;;;;;;;8.93;8.03;;;16.70;99.90;;;;;;5109875;27;20451;-74
2021/08/02 00:55:30;;;;;;;9.60;8.20;;;16.70;99.90;;;;;;5111259;28;20438;-74
2021/08/02 00:58:01;;;;;;;9.50;8.60;;;16.70;99.90;;;;;;5107786;28;20805;-73
2021/08/02 01:00:28;;;;;;;8.90;8.10;;;16.70;99.90;;;;;;5111786;28;20785;-73
2021/08/02 01:02:55;;;;;;;15.00;8.53;;;16.70;99.90;;;;;;5107129;28;20477;-74
2021/08/02 01:05:24;;;;;;;9.63;8.73;;;16.70;99.90;;;;;;5101354;27;20438;-73
2021/08/02 01:07:57;;;;;;;9.00;7.40;;;16.60;99.90;;;;;;5111754;27;20436;-74
2021/08/02 01:10:24;;;;;;;9.30;8.43;;;16.60;99.90;;;;;;5135296;27;20437;-73
2021/08/02 01:12:55;;;;;;;10.03;9.03;;;16.60;99.90;;;;;;5113153;27;20461;-74
2021/08/02 01:15:22;;;;;;;10.63;9.47;;;16.60;99.90;;;;;;5086978;28;20421;-74
2021/08/02 01:17:50;;;;;;;11.43;8.80;;;16.60;99.90;;;;;;5080364;28;20563;-72
2021/08/02 01:20:17;;;;;;;8.70;7.80;;;16.60;99.90;;;;;;5091797;28;20804;-74
2021/08/02 01:22:47;;;;;;;12.13;10.93;;;16.50;99.90;;;;;;5105692;28;20470;-74
2021/08/02 01:25:43;;;;;;;9.33;8.53;;;16.50;99.90;;;;;;5102509;27;20446;-74
2021/08/02 01:28:40;;;;;;;8.33;7.53;;;16.50;99.90;;;;;;5080769;28;20490;-73
2021/08/02 01:31:12;;;;;;;8.60;7.83;;;16.60;99.90;;;;;;5104081;27;20458;-73
2021/08/02 01:33:40;;;;;;;9.00;7.20;;;16.60;99.90;;;;;;5106391;27;20474;-74
2021/08/02 01:36:08;;;;;;;10.13;9.13;;;16.60;99.90;;;;;;5111590;28;20908;-74
2021/08/02 01:38:36;;;;;;;11.23;9.93;;;16.60;99.90;;;;;;5097484;27;20442;-73
2021/08/02 01:41:06;;;;;;;9.80;8.87;;;16.60;99.90;;;;;;5119321;27;20947;-73
2021/08/02 01:43:33;;;;;;;8.60;7.80;;;16.60;99.90;;;;;;5107319;28;21020;-74
2021/08/02 01:46:07;;;;;;;8.97;8.17;;;16.50;99.90;;;;;;5108063;28;20468;-73
2021/08/02 01:48:44;;;;;;;10.30;9.40;;;16.50;99.90;;;;;;5109838;28;20439;-74
2021/08/02 01:51:18;;;;;;;10.57;8.30;;;16.50;99.90;;;;;;5090835;28;20499;-74
2021/08/02 01:53:54;;;;;;;9.37;8.47;;;16.50;99.90;;;;;;5091201;28;20426;-73
2021/08/02 01:56:24;;;;;;;9.77;8.70;;;16.50;99.90;;;;;;5106251;28;20424;-74
2021/08/02 01:59:01;;;;;;;11.47;10.37;;;16.50;99.90;;;;;;5090684;28;20416;-73
2021/08/02 02:01:28;;;;;;;9.70;8.70;;;16.40;99.90;;;;;;5108261;28;20463;-75
2021/08/02 02:03:58;;;;;;;10.33;9.30;;;16.40;99.90;;;;;;5110757;28;20420;-74
2021/08/02 02:06:30;;;;;;;11.20;9.67;;;16.40;99.90;;;;;;5104542;27;21651;-75
2021/08/02 02:09:02;;;;;;;10.07;9.07;;;16.40;99.90;;;;;;5096687;27;20469;-74
2021/08/02 02:11:31;;;;;;;11.53;9.73;;;16.40;99.90;;;;;;5109512;27;20940;-74
2021/08/02 02:14:02;;;;;;;12.87;10.33;;;16.40;99.90;;;;;;5085327;28;20833;-74
2021/08/02 02:16:31;;;;;;;11.20;10.10;;;16.40;99.90;;;;;;5090918;28;20439;-74
2021/08/02 02:19:02;;;;;;;12.67;10.70;;;16.40;99.90;;;;;;5094695;28;20512;-74
2021/08/02 02:21:31;;;;;;;12.30;11.00;;;16.40;99.90;;;;;;5090543;28;20458;-73
2021/08/02 02:24:02;;;;;;;13.47;12.20;;;16.40;99.90;;;;;;5104256;28;20443;-74
2021/08/02 02:26:32;;;;;;;12.60;11.40;;;16.40;99.90;;;;;;5102155;28;21366;-75
2021/08/02 02:29:01;;;;;;;12.47;10.50;;;16.40;99.90;;;;;;5107947;28;20952;-74
2021/08/02 02:31:29;;;;;;;14.07;11.33;;;16.30;99.90;;;;;;5092655;28;20997;-74
2021/08/02 02:33:59;;;;;;;12.60;11.30;;;16.40;99.90;;;;;;5091516;28;20865;-74
2021/08/02 02:36:27;;;;;;;11.20;10.10;;;16.30;99.90;;;;;;5110729;28;20446;-74
2021/08/02 02:38:54;;;;;;;11.47;10.27;;;16.30;99.90;;;;;;5101163;28;20447;-74
2021/08/02 02:41:24;;;;;;;11.33;10.17;;;16.30;99.90;;;;;;5102839;28;20990;-74
2021/08/02 02:43:52;;;;;;;11.97;9.80;;;16.30;99.90;;;;;;5110960;28;20445;-74
2021/08/02 02:46:22;;;;;;;12.03;10.83;;;16.30;99.90;;;;;;5090711;28;20491;-74
2021/08/02 02:48:51;;;;;;;11.80;10.27;;;16.30;99.90;;;;;;5100623;28;20502;-73
2021/08/02 02:51:19;;;;;;;11.43;10.27;;;16.30;99.90;;;;;;5109408;28;20778;-73
2021/08/02 02:53:46;;;;;;;9.97;8.57;;;16.20;99.90;;;;;;5087226;28;20466;-75
2021/08/02 02:56:16;;;;;;;9.93;9.00;;;16.20;99.90;;;;;;5095825;28;20781;-74
2021/08/02 02:58:45;;;;;;;8.70;7.90;;;16.20;99.90;;;;;;5121877;27;20459;-73
2021/08/02 03:01:15;;;;;;;9.13;8.33;;;16.20;99.90;;;;;;5117061;27;20523;-74
2021/08/02 03:03:46;;;;;;;10.17;9.17;;;16.20;99.90;;;;;;5097042;28;20435;-74
2021/08/02 03:06:13;;;;;;;10.33;9.33;;;16.20;99.90;;;;;;5111450;28;20460;-75
2021/08/02 03:08:44;;;;;;;10.07;9.03;;;16.20;99.90;;;;;;5110868;27;20454;-75
2021/08/02 03:11:13;;;;;;;12.00;9.30;;;16.10;99.90;;;;;;5114634;28;20436;-73
2021/08/02 03:13:40;;;;;;;10.47;9.20;;;16.20;99.90;;;;;;5110410;28;20455;-74
2021/08/02 03:16:09;;;;;;;11.10;9.97;;;16.20;99.90;;;;;;5110597;27;20448;-74
2021/08/02 03:18:36;;;;;;;11.00;9.17;;;16.20;99.90;;;;;;5115534;28;20977;-74
2021/08/02 03:21:04;;;;;;;11.10;9.93;;;16.20;99.90;;;;;;5110173;28;20473;-73
2021/08/02 03:23:36;;;;;;;11.30;9.90;;;16.20;99.90;;;;;;5102230;27;20930;-74
2021/08/02 03:26:15;;;;;;;12.83;10.37;;;16.20;99.90;;;;;;5102732;27;20458;-73
2021/08/02 03:28:47;;;;;;;12.50;9.10;;;16.20;99.90;;;;;;5108965;27;20437;-73
2021/08/02 03:31:23;;;;;;;8.60;7.80;;;16.20;99.90;;;;;;5094646;28;20429;-75
2021/08/02 03:33:53;;;;;;;9.80;8.97;;;16.30;99.90;;;;;;5115966;28;20431;-74
2021/08/02 03:36:21;;;;;;;11.87;10.17;;;16.20;99.90;;;;;;5114713;28;20436;-73
2021/08/02 03:38:51;;;;;;;9.40;8.50;;;16.30;99.90;;;;;;5116658;28;20420;-74
2021/08/02 03:41:20;;;;;;;9.80;8.80;;;16.30;99.90;;;;;;5097536;28;20466;-73
2021/08/02 03:43:48;;;;;;;11.03;9.20;;;16.30;99.90;;;;;;5090875;28;20451;-74
2021/08/02 03:46:17;;;;;;;10.83;8.07;;;16.30;99.90;;;;;;5094115;28;20954;-74
2021/08/02 03:48:45;;;;;;;8.70;7.20;;;16.30;99.90;;;;;;5114433;27;20440;-73
2021/08/02 03:51:12;;;;;;;10.53;7.60;;;16.30;99.90;;;;;;5134463;27;21176;-74
2021/08/02 03:53:41;;;;;;;7.90;7.10;;;16.30;99.90;;;;;;5123394;27;20425;-73
2021/08/02 03:56:09;;;;;;;8.63;6.70;;;16.20;99.90;;;;;;5112809;27;20437;-73
2021/08/02 03:58:36;;;;;;;8.97;8.10;;;16.20;99.90;;;;;;5098895;28;20431;-75
2021/08/02 04:01:03;;;;;;;8.63;7.40;;;16.20;99.90;;;;;;5114593;28;20453;-73
2021/08/02 04:03:31;;;;;;;7.37;6.73;;;16.20;99.90;;;;;;5097526;28;20469;-74
2021/08/02 04:05:59;;;;;;;7.97;7.17;;;16.20;99.90;;;;;;5106522;27;20454;-73
2021/08/02 04:08:27;;;;;;;8.10;7.30;;;16.20;99.90;;;;;;5102414;27;20425;-74
2021/08/02 04:10:54;;;;;;;7.87;7.13;;;16.20;99.90;;;;;;5113599;28;20906;-73
2021/08/02 04:13:22;;;;;;;7.43;6.73;;;16.20;99.90;;;;;;5111984;28;20454;-74
2021/08/02 04:15:49;;;;;;;10.10;6.80;;;16.20;99.90;;;;;;5088514;28;20907;-74
2021/08/02 04:18:15;;;;;;;7.37;6.60;;;16.20;99.90;;;;;;5110991;28;20436;-74
2021/08/02 04:20:44;;;;;;;9.73;7.47;;;16.20;99.90;;;;;;5108682;28;20450;-73
2021/08/02 04:23:12;;;;;;;9.60;6.60;;;16.20;99.90;;;;;;5112252;28;20437;-74
2021/08/02 04:25:39;;;;;;;10.03;7.77;;;16.20;99.90;;;;;;5113169;28;20409;-75
2021/08/02 04:28:06;;;;;;;8.07;6.63;;;16.20;99.90;;;;;;5111486;28;20510;-74
2021/08/02 04:30:33;;;;;;;7.90;7.10;;;16.20;99.90;;;;;;5106467;27;20466;-73
2021/08/02 04:33:00;;;;;;;8.40;7.07;;;16.20;99.90;;;;;;5106749;27;20454;-74
2021/08/02 04:35:27;;;;;;;8.33;7.20;;;16.20;99.90;;;;;;5104850;27;20928;-74
2021/08/02 04:37:55;;;;;;;7.93;7.13;;;16.20;99.90;;;;;;5105236;28;20770;-74
2021/08/02 04:40:22;;;;;;;7.83;7.03;;;16.20;99.90;;;;;;5109114;28;20426;-74
2021/08/02 04:42:49;;;;;;;9.07;7.50;;;16.20;99.90;;;;;;5107488;27;20482;-74
2021/08/02 04:45:16;;;;;;;9.70;7.43;;;16.20;99.90;;;;;;5113327;28;20433;-74
2021/08/02 04:47:43;;;;;;;8.23;7.40;;;16.20;99.90;;;;;;5086141;28;20483;-75
2021/08/02 04:50:10;;;;;;;6.43;5.73;;;16.20;99.90;;;;;;5108003;28;20457;-74
2021/08/02 04:52:37;;;;;;;7.20;6.50;;;16.20;99.90;;;;;;5111783;28;20455;-75
2021/08/02 04:55:06;;;;;;;8.73;6.50;;;16.20;99.90;;;;;;5110328;28;20857;-74
2021/08/02 04:57:33;;;;;;;7.43;6.10;;;16.20;99.90;;;;;;5110983;28;20454;-73
2021/08/02 05:00:00;;;;;;;7.37;6.40;;;16.20;99.90;;;;;;5113173;28;20454;-74
2021/08/02 05:02:27;;;;;;;6.00;5.40;;;16.20;99.90;;;;;;5109078;28;20786;-74
2021/08/02 05:04:54;;;;;;;7.03;6.37;;;16.20;99.90;;;;;;5105860;28;20449;-75
2021/08/02 05:07:21;;;;;;;6.70;6.07;;;16.30;99.90;;;;;;5111723;28;21231;-74
2021/08/02 05:09:47;;;;;;;6.10;5.50;;;16.30;99.90;;;;;;5103857;27;20450;-74
2021/08/02 05:12:17;;;;;;;8.10;7.33;;;16.30;99.90;;;;;;5104430;27;20475;-74
2021/08/02 05:14:44;;;;;;;11.40;7.70;;;16.30;99.90;;;;;;5111569;28;20433;-74
2021/08/02 05:17:11;;;;;;;7.30;6.60;;;16.30;99.90;;;;;;5090487;28;20430;-73
2021/08/02 05:19:38;;;;;;;8.30;7.13;;;16.40;99.90;;;;;;5091364;28;20454;-74
2021/08/02 05:22:05;;;;;;;8.40;6.43;;;16.40;99.90;;;;;;5110701;28;20456;-75
2021/08/02 05:24:33;;;;;;;7.00;6.30;;;16.40;99.90;;;;;;5101697;27;20477;-75
2021/08/02 05:27:00;;;;;;;6.73;6.03;;;16.40;99.90;;;;;;5112175;28;20452;-75
2021/08/02 05:29:28;;;;;;;9.00;5.80;;;16.40;99.90;;;;;;5113634;28;20458;-74
2021/08/02 05:31:55;;;;;;;8.50;5.40;;;16.40;99.90;;;;;;5082510;28;20445;-74
2021/08/02 05:34:22;;;;;;;11.20;6.00;;;16.50;99.90;;;;;;5106914;28;20439;-73
2021/08/02 05:36:49;;;;;;;7.10;6.03;;;16.50;99.90;;;;;;5115463;27;20800;-74
2021/08/02 05:39:16;;;;;;;6.27;5.30;;;16.50;99.90;;;;;;5105189;27;20426;-74
2021/08/02 05:41:42;;;;;;;7.30;6.60;;;16.50;99.90;;;;;;5104383;27;20540;-72
2021/08/02 05:44:09;;;;;;;5.97;5.37;;;16.60;99.90;;;;;;5093755;28;20955;-74
2021/08/02 05:46:38;;;;;;;6.27;5.67;;;16.60;99.90;;;;;;5091505;28;20456;-74
2021/08/02 05:49:05;;;;;;;6.43;5.30;;;16.60;99.90;;;;;;5099923;28;20436;-74
2021/08/02 05:51:32;;;;;;;6.33;4.87;;;16.70;99.90;;;;;;5113255;28;20481;-74
2021/08/02 05:53:58;;;;;;;6.27;5.40;;;16.70;99.90;;;;;;5106114;27;20437;-74
2021/08/02 05:56:25;;;;;;;7.30;5.60;;;16.70;99.90;;;;;;5092820;28;20442;-72
2021/08/02 05:58:52;;;;;;;5.83;5.03;;;16.80;99.90;;;;;;5092318;28;20429;-72
2021/08/02 06:01:19;;;;;;;8.03;5.50;;;16.80;99.90;;;;;;5098115;28;20479;-73
2021/08/02 06:03:47;;;;;;;5.10;4.60;;;16.90;99.90;;;;;;5108236;28;20416;-72
2021/08/02 06:06:16;;;;;;;10.70;5.30;;;16.90;99.90;;;;;;5104397;28;20427;-72
2021/08/02 06:08:43;;;;;;;6.23;5.57;;;16.90;99.90;;;;;;5097577;27;20479;-72
2021/08/02 06:11:11;;;;;;;6.27;5.50;;;17.00;99.90;;;;;;5093075;28;20433;-72
2021/08/02 06:13:38;;;;;;;7.90;6.80;;;17.00;99.90;;;;;;5105352;28;20561;-72
2021/08/02 06:16:05;;;;;;;8.77;7.40;;;17.10;99.90;;;;;;5104326;28;20422;-72
2021/08/02 06:18:32;;;;;;;9.73;6.67;;;17.10;99.90;;;;;;5089313;28;20418;-76
2021/08/02 06:21:00;;;;;;;6.37;5.73;;;17.10;99.90;;;;;;5105086;28;20461;-73
2021/08/02 06:23:27;;;;;;;8.60;6.67;;;17.10;99.90;;;;;;5103587;28;20458;-74
2021/08/02 06:25:54;;;;;;;6.20;5.60;;;17.10;99.90;;;;;;5090332;28;20463;-74
2021/08/02 06:28:21;;;;;;;6.97;6.00;;;17.10;99.90;;;;;;5105174;27;20485;-74
2021/08/02 06:30:48;;;;;;;5.90;5.30;;;17.10;99.90;;;;;;5111238;28;20455;-74
2021/08/02 06:33:15;;;;;;;7.10;6.40;;;17.10;99.90;;;;;;5111307;28;20429;-74
2021/08/02 06:35:42;;;;;;;7.60;6.37;;;17.10;99.90;;;;;;5101137;27;20427;-74
2021/08/02 06:38:10;;;;;;;8.17;7.10;;;17.10;99.90;;;;;;5122157;27;20463;-74
2021/08/02 06:40:37;;;;;;;9.70;6.70;;;17.10;99.90;;;;;;5106078;28;20425;-73
2021/08/02 06:43:04;;;;;;;9.40;7.10;;;17.20;99.90;;;;;;5103792;28;20481;-73
2021/08/02 06:45:31;;;;;;;9.23;8.37;;;17.10;99.90;;;;;;5105398;28;21084;-73
2021/08/02 06:47:58;;;;;;;13.47;8.83;;;17.10;99.90;;;;;;5106246;28;20513;-74
2021/08/02 06:50:25;;;;;;;9.67;7.50;;;17.10;99.90;;;;;;5110295;28;20541;-74
2021/08/02 06:52:53;;;;;;;12.53;8.60;;;17.10;99.90;;;;;;5110629;28;21054;-74
2021/08/02 06:55:21;;;;;;;9.00;7.43;;;17.00;99.90;;;;;;5104974;28;20430;-75
2021/08/02 06:57:48;;;;;;;9.47;7.77;;;17.00;99.90;;;;;;5097092;28;20422;-72
2021/08/02 07:00:16;;;;;;;8.37;7.53;;;17.00;99.90;;;;;;5089653;28;20453;-73
2021/08/02 07:02:43;;;;;;;12.27;7.90;;;17.00;99.90;;;;;;5106953;28;20539;-74
2021/08/02 07:05:11;;;;;;;10.00;8.43;;;17.00;99.90;;;;;;5092874;28;20417;-73
2021/08/02 07:07:38;;;;;;;10.10;9.10;;;16.90;99.90;;;;;;5108043;28;20829;-73
2021/08/02 07:10:06;;;;;;;9.30;7.73;;;16.90;99.90;;;;;;5093524;28;20413;-74
2021/08/02 07:12:35;;;;;;;9.50;7.70;;;16.90;99.90;;;;;;5111985;28;20890;-74
2021/08/02 07:15:01;;;;;;;10.00;8.40;;;16.90;99.90;;;;;;5113275;28;20453;-73
2021/08/02 07:17:28;;;;;;;9.63;7.80;;;16.90;99.90;;;;;;5113035;28;20955;-74
2021/08/02 07:19:55;;;;;;;9.63;8.03;;;16.90;99.90;;;;;;5112667;28;20417;-74
2021/08/02 07:22:22;;;;;;;9.30;8.23;;;16.90;99.90;;;;;;5110315;28;20536;-74
2021/08/02 07:24:49;;;;;;;9.37;8.03;;;16.80;99.90;;;;;;5106260;28;20406;-74
2021/08/02 07:27:16;;;;;;;8.20;7.40;;;16.80;99.90;;;;;;5110282;28;20432;-74
2021/08/02 07:29:44;;;;;;;9.40;7.47;;;16.80;99.90;;;;;;5111064;28;20449;-74
2021/08/02 07:32:11;;;;;;;12.27;8.30;;;16.90;99.90;;;;;;5110364;28;20967;-76
2021/08/02 07:34:38;;;;;;;15.23;8.90;;;16.90;99.90;;;;;;5111068;28;20416;-75
2021/08/02 07:37:06;;;;;;;8.90;7.70;;;16.90;99.90;;;;;;5115676;28;20432;-73
2021/08/02 07:39:33;;;;;;;13.67;9.40;;;16.90;99.90;;;;;;5098654;28;20500;-73
2021/08/02 07:41:59;;;;;;;11.67;8.57;;;16.90;99.90;;;;;;5115589;28;20469;-74
2021/08/02 07:44:26;;;;;;;8.80;7.70;;;16.90;99.90;;;;;;5113500;28;20438;-74
2021/08/02 07:46:55;;;;;;;9.23;8.23;;;16.90;99.90;;;;;;5110286;28;20903;-75
2021/08/02 07:49:22;;;;;;;14.20;9.53;;;16.90;99.90;;;;;;5112231;28;20453;-74
2021/08/02 07:51:49;;;;;;;9.80;8.20;;;16.90;99.90;;;;;;5114322;28;20516;-75
2021/08/02 07:54:15;;;;;;;13.80;9.57;;;16.90;99.90;;;;;;5114238;28;20439;-75
2021/08/02 07:56:42;;;;;;;9.37;8.10;;;16.90;99.90;;;;;;5114354;28;20432;-75
2021/08/02 07:59:09;;;;;;;8.40;7.60;;;16.90;99.90;;;;;;5115508;28;20425;-74
2021/08/02 08:01:36;;;;;;;10.43;8.00;;;16.90;99.90;;;;;;5116085;28;20953;-74
2021/08/02 08:04:05;;;;;;;8.53;7.73;;;16.90;99.90;;;;;;5112495;28;20484;-74
2021/08/02 08:06:31;;;;;;;8.63;7.40;;;16.90;99.90;;;;;;5109620;28;20909;-74
2021/08/02 08:08:58;;;;;;;8.23;7.43;;;16.80;99.90;;;;;;5112568;28;20458;-73
2021/08/02 08:11:25;;;;;;;8.63;6.47;;;16.80;99.90;;;;;;5096558;28;20442;-73
2021/08/02 08:13:52;;;;;;;10.47;7.13;;;16.80;99.90;;;;;;5093339;28;20775;-74
2021/08/02 08:16:19;;;;;;;8.20;6.47;;;16.80;99.90;;;;;;5093556;28;20770;-73
2021/08/02 08:18:46;;;;;;;9.47;6.53;;;16.80;99.90;;;;;;5115979;28;20423;-73
2021/08/02 08:21:14;;;;;;;7.43;6.63;;;16.80;99.90;;;;;;5115767;28;20773;-73
2021/08/02 08:23:41;;;;;;;9.40;8.07;;;16.90;99.90;;;;;;5106212;28;20775;-73
2021/08/02 08:26:08;;;;;;;8.73;7.07;;;16.90;99.90;;;;;;5098294;28;20397;-73
2021/08/02 08:28:35;;;;;;;10.50;8.37;;;16.90;99.90;;;;;;5109044;28;20528;-72
2021/08/02 08:31:02;;;;;;;10.20;6.60;;;16.90;99.90;;;;;;5097164;28;20478;-73
2021/08/02 08:33:29;;;;;;;7.57;6.77;;;16.90;99.90;;;;;;5096939;28;20531;-73
2021/08/02 08:35:57;;;;;;;9.13;6.77;;;16.90;99.90;;;;;;5113336;28;20416;-72
2021/08/02 08:38:25;;;;;;;7.00;6.30;;;16.90;99.90;;;;;;5072843;28;20774;-73
2021/08/02 08:40:53;;;;;;;8.67;7.73;;;16.90;99.90;;;;;;5113908;28;20509;-73
2021/08/02 08:43:21;;;;;;;8.57;6.97;;;16.90;99.90;;;;;;5115043;28;20491;-73
2021/08/02 08:45:48;;;;;;;13.20;7.67;;;16.90;99.90;;;;;;5096633;28;20398;-75
2021/08/02 08:48:15;;;;;;;9.07;6.60;;;17.00;99.90;;;;;;5114324;28;20479;-73
2021/08/02 08:50:43;;;;;;;8.53;6.60;;;17.00;99.90;;;;;;5107802;28;20943;-73
2021/08/02 08:53:11;;;;;;;7.10;6.13;;;17.00;99.90;;;;;;5111058;28;20415;-73
2021/08/02 08:55:43;;;;;;;9.33;6.40;;;17.00;99.90;;;;;;5077676;28;20421;-73
2021/08/02 08:58:10;;;;;;;7.53;6.83;;;17.00;99.90;;;;;;5112588;28;20446;-73
2021/08/02 09:00:37;;;;;;;10.13;7.03;;;17.00;99.90;;;;;;5113386;28;20430;-73
2021/08/02 09:03:10;;;;;;;6.60;5.70;;;17.10;99.90;;;;;;5113076;28;20453;-73
2021/08/02 09:05:37;;;;;;;10.20;6.20;;;17.10;99.90;;;;;;5080119;28;20415;-73
2021/08/02 09:08:06;;;;;;;11.10;5.80;;;17.10;99.90;;;;;;5114872;28;20448;-73
2021/08/02 09:10:33;;;;;;;8.00;4.87;;;17.10;99.90;;;;;;5095490;28;20448;-74
2021/08/02 09:13:03;;;;;;;6.20;4.63;;;17.10;99.90;;;;;;5108058;28;20454;-74
2021/08/02 09:15:33;;;;;;;5.10;4.13;;;17.10;99.90;;;;;;5110601;28;20444;-73
2021/08/02 09:18:01;;;;;;;6.07;4.63;;;17.10;99.90;;;;;;5077853;28;20434;-74
2021/08/02 09:20:29;;;;;;;5.47;4.20;;;17.10;99.90;;;;;;5094312;28;20849;-75
2021/08/02 09:23:06;;;;;;;6.93;4.53;;;17.10;99.90;;;;;;5076566;28;20437;-74
2021/08/02 09:25:33;;;;;;;6.60;4.00;;;17.20;99.90;;;;;;5094392;28;20409;-75
2021/08/02 09:28:11;;;;;;;6.60;4.53;;;17.20;99.90;;;;;;5114129;28;20422;-75
2021/08/02 09:30:39;;;;;;;6.57;4.30;;;17.30;99.90;;;;;;5079806;28;20439;-74
2021/08/02 09:33:07;;;;;;;7.20;3.57;;;17.30;99.90;;;;;;5113172;28;20458;-75
2021/08/02 09:35:38;;;;;;;3.80;3.03;;;17.40;99.90;;;;;;5089846;28;20452;-73
2021/08/02 09:38:06;;;;;;;4.57;3.10;;;17.50;99.90;;;;;;5110660;28;20532;-75
2021/08/02 09:40:42;;;;;;;4.83;3.00;;;17.70;99.90;;;;;;5111949;28;20456;-73
2021/08/02 09:43:13;;;;;;;5.37;3.90;;;17.90;99.90;;;;;;5093823;28;20457;-75
2021/08/02 09:45:42;;;;;;;5.00;3.07;;;18.00;99.90;;;;;;5093608;28;20480;-73
2021/08/02 09:48:09;;;;;;;5.90;3.80;;;18.20;99.90;;;;;;5092020;28;20506;-74
2021/08/02 09:50:37;;;;;;;6.97;3.60;;;18.40;99.90;;;;;;5108770;28;20475;-73
2021/08/02 09:53:04;;;;;;;4.00;3.10;;;18.50;99.90;;;;;;5111062;28;20933;-73
2021/08/02 09:55:31;;;;;;;4.53;2.80;;;18.70;99.90;;;;;;5111618;28;20442;-73
2021/08/02 09:57:58;;;;;;;6.20;3.20;;;18.80;99.90;;;;;;5111743;28;20445;-74
2021/08/02 10:00:27;;;;;;;4.53;3.03;;;18.90;99.90;;;;;;5111849;28;20880;-73
2021/08/02 10:02:55;;;;;;;4.13;2.83;;;19.00;99.90;;;;;;5114085;28;20454;-75
2021/08/02 10:05:22;;;;;;;5.07;3.03;;;19.10;99.90;;;;;;5113990;28;20526;-74
2021/08/02 10:07:49;;;;;;;5.60;3.20;;;19.30;99.90;;;;;;5113943;28;20442;-75
2021/08/02 10:10:17;;;;;;;3.43;2.60;;;19.40;99.90;;;;;;5110380;28;20903;-74
2021/08/02 10:12:47;;;;;;;2.80;2.43;;;19.60;99.90;;;;;;5107765;28;20478;-74
2021/08/02 10:15:17;;;;;;;4.50;3.30;;;19.70;99.90;;;;;;5076248;28;20458;-75
2021/08/02 10:17:49;;;;;;;4.00;2.80;;;19.80;99.90;;;;;;5076590;28;20448;-74
2021/08/02 10:20:18;;;;;;;3.13;2.70;;;19.90;99.90;;;;;;5111681;28;20502;-74
2021/08/02 10:22:45;;;;;;;3.20;2.60;;;20.00;99.90;;;;;;5111990;28;20450;-75
2021/08/02 10:25:12;;;;;;;4.20;2.60;;;20.10;99.90;;;;;;5113836;28;20952;-74
2021/08/02 10:27:39;;;;;;;4.43;2.80;;;20.10;99.90;;;;;;5113607;28;20446;-75
2021/08/02 10:30:21;;;;;;;4.50;2.83;;;20.10;99.90;;;;;;5113672;28;20478;-76
2021/08/02 10:32:54;;;;;;;5.00;2.60;;;20.20;99.90;;;;;;5108790;28;20446;-74
2021/08/02 10:35:33;;;;;;;4.83;2.90;;;20.20;99.90;;;;;;5090428;28;20430;-75
2021/08/02 10:38:01;;;;;;;5.27;2.33;;;20.30;99.90;;;;;;5076625;28;20943;-77
2021/08/02 10:40:28;;;;;;;5.67;2.80;;;20.40;99.90;;;;;;5076784;28;20446;-74
2021/08/02 10:42:55;;;;;;;5.17;2.70;;;20.40;99.90;;;;;;5111254;28;20485;-75
2021/08/02 10:45:29;;;;;;;4.40;2.90;;;20.50;99.90;;;;;;5112447;28;20462;-75
2021/08/02 10:47:58;;;;;;;3.63;2.87;;;20.60;99.90;;;;;;5078821;28;20453;-75
2021/08/02 10:50:26;;;;;;;4.00;2.57;;;20.60;99.90;;;;;;5113372;28;20872;-75
2021/08/02 10:52:54;;;;;;;4.80;2.60;;;20.70;99.90;;;;;;5113541;28;20459;-76
2021/08/02 10:55:21;;;;;;;3.13;2.33;;;20.70;99.90;;;;;;5107539;28;20430;-74
2021/08/02 10:58:03;;;;;;;4.60;2.90;;;20.70;99.90;;;;;;5108696;28;20439;-74
2021/08/02 11:00:30;;;;;;;4.73;2.63;;;20.70;99.90;;;;;;5095326;28;20777;-76
2021/08/02 11:02:59;;;;;;;3.83;2.83;;;20.70;99.90;;;;;;5110795;28;20967;-74
2021/08/02 11:05:32;;;;;;;5.30;3.00;;;20.60;99.90;;;;;;5111187;28;20442;-74
2021/08/02 11:08:02;;;;;;;4.60;2.73;;;20.60;99.90;;;;;;5078092;28;20438;-74
2021/08/02 11:10:30;;;;;;;3.10;2.63;;;20.60;99.90;;;;;;5113263;28;20486;-74
2021/08/02 11:12:57;;;;;;;3.30;2.83;;;20.70;99.90;;;;;;5115081;28;20457;-75
2021/08/02 11:15:24;;;;;;;3.07;2.70;;;20.70;99.90;;;;;;5116257;28;20512;-72
2021/08/02 11:17:52;;;;;;;4.87;3.00;;;20.70;99.90;;;;;;5110708;28;20430;-73
2021/08/02 11:20:21;;;;;;;4.77;2.63;;;20.80;99.90;;;;;;5086356;28;20453;-74
2021/08/02 11:22:50;;;;;;;3.93;2.10;;;20.80;99.90;;;;;;5111660;28;20461;-73
2021/08/02 11:25:24;;;;;;;3.57;2.30;;;20.80;99.90;;;;;;5109838;28;20469;-74
2021/08/02 11:27:53;;;;;;;2.60;2.40;;;20.80;99.90;;;;;;5111751;28;20796;-73
2021/08/02 11:30:20;;;;;;;4.97;2.37;;;20.80;99.90;;;;;;5101282;28;20893;-74
2021/08/02 11:32:47;;;;;;;2.57;2.37;;;20.80;99.90;;;;;;5105735;28;20455;-73
2021/08/02 11:35:14;;;;;;;3.83;2.43;;;20.90;99.90;;;;;;5104618;28;20843;-73
2021/08/02 11:37:50;;;;;;;3.13;2.20;;;20.90;99.90;;;;;;5108444;28;20430;-73
2021/08/02 11:40:18;;;;;;;2.83;2.63;;;20.90;99.90;;;;;;5088851;28;20443;-73
2021/08/02 11:42:47;;;;;;;4.07;2.60;;;20.90;99.90;;;;;;5084848;28;20478;-73
2021/08/02 11:45:16;;;;;;;4.80;2.40;;;21.00;99.90;;;;;;5074169;28;20817;-73
2021/08/02 11:47:45;;;;;;;3.53;2.70;;;20.90;99.90;;;;;;5102757;28;20443;-74
2021/08/02 11:50:14;;;;;;;4.10;2.20;;;20.90;99.90;;;;;;5074104;28;20491;-73
2021/08/02 11:52:44;;;;;;;2.47;2.20;;;20.90;99.90;;;;;;5086560;28;20450;-74
2021/08/02 11:55:13;;;;;;;4.80;2.00;;;20.80;99.90;;;;;;5089115;28;20450;-74
2021/08/02 11:57:41;;;;;;;2.60;1.93;;;20.70;99.90;;;;;;5092758;28;20434;-75
2021/08/02 12:00:15;;;;;;;3.03;2.40;;;20.70;99.90;;;;;;5080618;28;20439;-74
2021/08/02 12:02:44;;;;;;;5.47;3.10;;;20.70;99.90;;;;;;5090009;28;20470;-74
2021/08/02 12:05:21;;;;;;;3.63;2.70;;;20.70;99.90;;;;;;5072661;28;20554;-73
2021/08/02 12:07:49;;;;;;;3.10;2.67;;;20.70;99.90;;;;;;5074442;28;20446;-73
2021/08/02 12:10:19;;;;;;;4.13;2.60;;;20.70;99.90;;;;;;5092543;28;20491;-74
2021/08/02 12:12:57;;;;;;;3.03;2.53;;;20.70;99.90;;;;;;5074779;28;20467;-73
2021/08/02 12:15:24;;;;;;;5.60;2.43;;;20.80;99.90;;;;;;5085913;28;20932;-74
2021/08/02 12:17:52;;;;;;;4.03;2.70;;;20.90;99.90;;;;;;5068380;28;20438;-74
2021/08/02 12:20:29;;;;;;;2.63;2.43;;;20.90;99.90;;;;;;5092625;28;20443;-72
2021/08/02 12:22:58;;;;;;;4.20;2.90;;;21.00;99.90;;;;;;5084158;28;20447;-74
2021/08/02 12:25:35;;;;;;;4.30;2.80;;;21.00;99.90;;;;;;5114648;27;20455;-74
2021/08/02 12:28:02;;;;;;;2.97;2.67;;;21.10;99.90;;;;;;5111669;27;20450;-74
2021/08/02 12:30:29;;;;;;;3.00;2.60;;;21.20;99.90;;;;;;5090894;28;20471;-76
2021/08/02 12:32:56;;;;;;;3.20;2.90;;;21.20;99.90;;;;;;5111776;28;20455;-74
2021/08/02 12:35:22;;;;;;;4.40;2.97;;;21.30;99.90;;;;;;5113212;28;20976;-74
2021/08/02 12:37:49;;;;;;;3.63;2.90;;;21.30;99.90;;;;;;5110902;28;20492;-73
2021/08/02 12:40:19;;;;;;;4.70;3.07;;;21.30;99.90;;;;;;5109731;28;20439;-74
2021/08/02 12:42:47;;;;;;;3.40;3.10;;;21.40;99.90;;;;;;5087776;28;20830;-76
2021/08/02 12:45:16;;;;;;;3.27;2.97;;;21.40;99.90;;;;;;5084817;28;20428;-73
2021/08/02 12:47:43;;;;;;;2.80;2.60;;;21.40;99.90;;;;;;5086805;28;20438;-73
2021/08/02 12:50:12;;;;;;;3.10;2.80;;;21.40;99.90;;;;;;5087709;28;20490;-74
2021/08/02 12:52:40;;;;;;;3.30;2.60;;;21.40;99.90;;;;;;5089089;28;20459;-74